sensor_id;sensor_type;location;lat;lon;timestamp;temperature;humidity
9383;DHT22;4731;49.708;10.816;2023-04-25T00:01:55;7.70;99.90
9383;DHT22;4731;49.708;10.816;2023-04-25T00:04:23;7.70;99.90
9383;DHT22;4731;49.708;10.816;2023-04-25T00:06:50;6.60;99.90
9383;DHT22;4731;49.708;10.816;2023-04-25T00:09:18;7.70;99.90
9383;DHT22;4731;49.708;10.816;2023-04-25T00:11:45;7.70;99.90
9383;DHT22;4731;49.708;10.816;2023-04-25T00:14:12;9.10;99.90
9383;DHT22;4731;49.708;10.816;2023-04-25T00:16:38;7.70;99.90
9383;DHT22;4731;49.708;10.816;2023-04-25T00:19:06;7.70;99.90
9383;DHT22;4731;49.708;10.816;2023-04-25T00:21:36;7.70;99.90
9383;DHT22;4731;49.708;10.816;2023-04-25T00:24:06;7.70;99.90
9383;DHT22;4731;49.708;10.816;2023-04-25T00:26:34;7.80;99.90
9383;DHT22;4731;49.708;10.816;2023-04-25T00:29:01;7.90;99.90
9383;DHT22;4731;49.708;10.816;2023-04-25T00:31:28;8.10;99.90
9383;DHT22;4731;49.708;10.816;2023-04-25T00:33:55;8.00;99.90
9383;DHT22;4731;49.708;10.816;2023-04-25T00:36:24;7.90;99.90
9383;DHT22;4731;49.708;10.816;2023-04-25T00:38:54;7.90;99.90
9383;DHT22;4731;49.708;10.816;2023-04-25T00:41:21;10.80;99.90
9383;DHT22;4731;49.708;10.816;2023-04-25T00:43:49;8.30;99.90
9383;DHT22;4731;49.708;10.816;2023-04-25T00:46:16;9.90;99.90
9383;DHT22;4731;49.708;10.816;2023-04-25T00:48:43;10.20;99.90
9383;DHT22;4731;49.708;10.816;2023-04-25T00:51:15;7.90;99.90
9383;DHT22;4731;49.708;10.816;2023-04-25T00:53:42;9.10;99.90
9383;DHT22;4731;49.708;10.816;2023-04-25T00:56:11;9.60;99.90
9383;DHT22;4731;49.708;10.816;2023-04-25T00:58:38;7.80;99.90
9383;DHT22;4731;49.708;10.816;2023-04-25T01:01:06;7.90;99.90
9383;DHT22;4731;49.708;10.816;2023-04-25T01:03:37;7.90;99.90
9383;DHT22;4731;49.708;10.816;2023-04-25T01:06:07;8.80;99.90
9383;DHT22;4731;49.708;10.816;2023-04-25T01:08:34;7.90;99.90
9383;DHT22;4731;49.708;10.816;2023-04-25T01:11:00;7.90;99.90
9383;DHT22;4731;49.708;10.816;2023-04-25T01:13:29;9.40;99.90
9383;DHT22;4731;49.708;10.816;2023-04-25T01:15:57;8.00;99.90
9383;DHT22;4731;49.708;10.816;2023-04-25T01:18:24;7.90;99.90
9383;DHT22;4731;49.708;10.816;2023-04-25T01:20:51;7.90;99.90
9383;DHT22;4731;49.708;10.816;2023-04-25T01:23:20;8.00;99.90
9383;DHT22;4731;49.708;10.816;2023-04-25T01:25:48;7.90;99.90
9383;DHT22;4731;49.708;10.816;2023-04-25T01:28:15;8.00;99.90
9383;DHT22;4731;49.708;10.816;2023-04-25T01:30:42;8.00;99.90
9383;DHT22;4731;49.708;10.816;2023-04-25T01:33:09;9.40;99.90
9383;DHT22;4731;49.708;10.816;2023-04-25T01:35:36;8.10;99.90
9383;DHT22;4731;49.708;10.816;2023-04-25T01:38:03;8.10;99.90
9383;DHT22;4731;49.708;10.816;2023-04-25T01:40:31;11.90;99.90
9383;DHT22;4731;49.708;10.816;2023-04-25T01:42:59;9.20;99.90
9383;DHT22;4731;49.708;10.816;2023-04-25T01:45:26;7.90;99.90
9383;DHT22;4731;49.708;10.816;2023-04-25T01:47:53;7.90;99.90
9383;DHT22;4731;49.708;10.816;2023-04-25T01:50:20;9.60;99.90
9383;DHT22;4731;49.708;10.816;2023-04-25T01:52:47;7.80;99.90
9383;DHT22;4731;49.708;10.816;2023-04-25T01:55:14;7.90;99.90
9383;DHT22;4731;49.708;10.816;2023-04-25T01:57:42;8.30;99.90
9383;DHT22;4731;49.708;10.816;2023-04-25T02:00:10;8.10;99.90
9383;DHT22;4731;49.708;10.816;2023-04-25T02:02:37;8.10;99.90
9383;DHT22;4731;49.708;10.816;2023-04-25T02:05:05;8.00;99.90
9383;DHT22;4731;49.708;10.816;2023-04-25T02:07:32;8.00;99.90
9383;DHT22;4731;49.708;10.816;2023-04-25T02:09:59;8.00;99.90
9383;DHT22;4731;49.708;10.816;2023-04-25T02:12:27;8.20;99.90
9383;DHT22;4731;49.708;10.816;2023-04-25T02:14:55;8.00;99.90
9383;DHT22;4731;49.708;10.816;2023-04-25T02:17:22;8.00;99.90
9383;DHT22;4731;49.708;10.816;2023-04-25T02:19:49;8.00;99.90
9383;DHT22;4731;49.708;10.816;2023-04-25T02:22:16;8.10;99.90
9383;DHT22;4731;49.708;10.816;2023-04-25T02:24:43;8.10;99.90
9383;DHT22;4731;49.708;10.816;2023-04-25T02:27:09;9.00;99.90
9383;DHT22;4731;49.708;10.816;2023-04-25T02:29:36;8.00;99.90
9383;DHT22;4731;49.708;10.816;2023-04-25T02:32:05;7.90;99.90
9383;DHT22;4731;49.708;10.816;2023-04-25T02:34:31;8.00;99.90
9383;DHT22;4731;49.708;10.816;2023-04-25T02:36:58;10.00;99.90
9383;DHT22;4731;49.708;10.816;2023-04-25T02:39:25;8.00;99.90
9383;DHT22;4731;49.708;10.816;2023-04-25T02:41:52;9.00;99.90
9383;DHT22;4731;49.708;10.816;2023-04-25T02:44:19;11.20;99.90
9383;DHT22;4731;49.708;10.816;2023-04-25T02:46:46;9.00;99.90
9383;DHT22;4731;49.708;10.816;2023-04-25T02:49:14;8.00;99.90
9383;DHT22;4731;49.708;10.816;2023-04-25T02:51:41;7.90;99.90
9383;DHT22;4731;49.708;10.816;2023-04-25T02:54:08;10.90;99.90
9383;DHT22;4731;49.708;10.816;2023-04-25T02:56:35;7.80;99.90
9383;DHT22;4731;49.708;10.816;2023-04-25T02:59:02;7.90;99.90
9383;DHT22;4731;49.708;10.816;2023-04-25T03:01:28;7.90;99.90
9383;DHT22;4731;49.708;10.816;2023-04-25T03:03:55;7.80;99.90
9383;DHT22;4731;49.708;10.816;2023-04-25T03:06:23;7.80;99.90
9383;DHT22;4731;49.708;10.816;2023-04-25T03:08:50;9.40;99.90
9383;DHT22;4731;49.708;10.816;2023-04-25T03:11:17;7.90;99.90
9383;DHT22;4731;49.708;10.816;2023-04-25T03:13:45;7.90;99.90
9383;DHT22;4731;49.708;10.816;2023-04-25T03:16:12;7.90;99.90
9383;DHT22;4731;49.708;10.816;2023-04-25T03:18:39;7.90;99.90
9383;DHT22;4731;49.708;10.816;2023-04-25T03:21:05;7.90;99.90
9383;DHT22;4731;49.708;10.816;2023-04-25T03:23:34;7.80;99.90
9383;DHT22;4731;49.708;10.816;2023-04-25T03:26:00;7.80;99.90
9383;DHT22;4731;49.708;10.816;2023-04-25T03:28:27;7.80;99.90
9383;DHT22;4731;49.708;10.816;2023-04-25T03:30:54;8.50;99.90
9383;DHT22;4731;49.708;10.816;2023-04-25T03:33:21;7.90;99.90
9383;DHT22;4731;49.708;10.816;2023-04-25T03:35:48;7.80;99.90
9383;DHT22;4731;49.708;10.816;2023-04-25T03:38:15;7.80;99.90
9383;DHT22;4731;49.708;10.816;2023-04-25T03:40:44;7.80;99.90
9383;DHT22;4731;49.708;10.816;2023-04-25T03:43:11;7.80;99.90
9383;DHT22;4731;49.708;10.816;2023-04-25T03:45:37;8.80;99.90
9383;DHT22;4731;49.708;10.816;2023-04-25T03:48:05;8.80;99.90
9383;DHT22;4731;49.708;10.816;2023-04-25T03:50:31;7.50;99.90
9383;DHT22;4731;49.708;10.816;2023-04-25T03:52:58;9.40;99.90
9383;DHT22;4731;49.708;10.816;2023-04-25T03:55:25;7.40;99.90
9383;DHT22;4731;49.708;10.816;2023-04-25T03:57:53;10.00;99.90
9383;DHT22;4731;49.708;10.816;2023-04-25T04:00:20;7.40;99.90
9383;DHT22;4731;49.708;10.816;2023-04-25T04:02:47;7.30;99.90
9383;DHT22;4731;49.708;10.816;2023-04-25T04:05:13;7.30;99.90
9383;DHT22;4731;49.708;10.816;2023-04-25T04:07:40;7.30;99.90
9383;DHT22;4731;49.708;10.816;2023-04-25T04:10:08;7.30;99.90
9383;DHT22;4731;49.708;10.816;2023-04-25T04:12:35;7.30;99.90
9383;DHT22;4731;49.708;10.816;2023-04-25T04:15:05;7.30;99.90
9383;DHT22;4731;49.708;10.816;2023-04-25T04:17:32;7.30;99.90
9383;DHT22;4731;49.708;10.816;2023-04-25T04:19:59;7.30;99.90
9383;DHT22;4731;49.708;10.816;2023-04-25T04:22:26;7.30;99.90
9383;DHT22;4731;49.708;10.816;2023-04-25T04:24:53;7.30;99.90
9383;DHT22;4731;49.708;10.816;2023-04-25T04:27:21;7.30;99.90
9383;DHT22;4731;49.708;10.816;2023-04-25T04:29:48;7.90;99.90
9383;DHT22;4731;49.708;10.816;2023-04-25T04:32:17;9.60;99.90
9383;DHT22;4731;49.708;10.816;2023-04-25T04:34:43;7.30;99.90
9383;DHT22;4731;49.708;10.816;2023-04-25T04:37:12;7.30;99.90
9383;DHT22;4731;49.708;10.816;2023-04-25T04:39:40;7.20;99.90
9383;DHT22;4731;49.708;10.816;2023-04-25T04:42:07;7.20;99.90
9383;DHT22;4731;49.708;10.816;2023-04-25T04:44:34;7.90;99.90
9383;DHT22;4731;49.708;10.816;2023-04-25T04:47:00;7.30;99.90
9383;DHT22;4731;49.708;10.816;2023-04-25T04:49:30;7.30;99.90
9383;DHT22;4731;49.708;10.816;2023-04-25T04:51:57;7.20;99.90
9383;DHT22;4731;49.708;10.816;2023-04-25T04:54:25;7.30;99.90
9383;DHT22;4731;49.708;10.816;2023-04-25T04:56:52;9.30;99.90
9383;DHT22;4731;49.708;10.816;2023-04-25T04:59:19;7.30;99.90
9383;DHT22;4731;49.708;10.816;2023-04-25T05:01:46;8.00;99.90
9383;DHT22;4731;49.708;10.816;2023-04-25T05:04:13;7.30;99.90
9383;DHT22;4731;49.708;10.816;2023-04-25T05:06:43;7.40;99.90
9383;DHT22;4731;49.708;10.816;2023-04-25T05:09:10;7.40;99.90
9383;DHT22;4731;49.708;10.816;2023-04-25T05:11:37;7.40;99.90
9383;DHT22;4731;49.708;10.816;2023-04-25T05:14:04;7.40;99.90
9383;DHT22;4731;49.708;10.816;2023-04-25T05:16:31;7.50;99.90
9383;DHT22;4731;49.708;10.816;2023-04-25T05:18:57;7.50;99.90
9383;DHT22;4731;49.708;10.816;2023-04-25T05:21:24;9.60;99.90
9383;DHT22;4731;49.708;10.816;2023-04-25T05:23:54;7.50;99.90
9383;DHT22;4731;49.708;10.816;2023-04-25T05:26:21;7.40;99.90
9383;DHT22;4731;49.708;10.816;2023-04-25T05:28:47;9.10;99.90
9383;DHT22;4731;49.708;10.816;2023-04-25T05:31:16;10.80;99.90
9383;DHT22;4731;49.708;10.816;2023-04-25T05:33:43;8.00;99.90
9383;DHT22;4731;49.708;10.816;2023-04-25T05:36:09;7.50;99.90
9383;DHT22;4731;49.708;10.816;2023-04-25T05:38:36;7.40;99.90
9383;DHT22;4731;49.708;10.816;2023-04-25T05:41:04;7.50;99.90
9383;DHT22;4731;49.708;10.816;2023-04-25T05:43:31;9.00;99.90
9383;DHT22;4731;49.708;10.816;2023-04-25T05:45:58;7.50;99.90
9383;DHT22;4731;49.708;10.816;2023-04-25T05:48:25;7.50;99.90
9383;DHT22;4731;49.708;10.816;2023-04-25T05:50:52;6.50;99.90
9383;DHT22;4731;49.708;10.816;2023-04-25T05:53:19;7.60;99.90
9383;DHT22;4731;49.708;10.816;2023-04-25T05:55:46;7.60;99.90
9383;DHT22;4731;49.708;10.816;2023-04-25T05:58:14;7.60;99.90
9383;DHT22;4731;49.708;10.816;2023-04-25T06:00:41;7.70;99.90
9383;DHT22;4731;49.708;10.816;2023-04-25T06:03:08;7.70;99.90
9383;DHT22;4731;49.708;10.816;2023-04-25T06:05:36;9.80;99.90
9383;DHT22;4731;49.708;10.816;2023-04-25T06:08:03;7.80;99.90
9383;DHT22;4731;49.708;10.816;2023-04-25T06:10:29;7.80;99.90
9383;DHT22;4731;49.708;10.816;2023-04-25T06:12:56;7.80;99.90
9383;DHT22;4731;49.708;10.816;2023-04-25T06:15:24;7.80;99.90
9383;DHT22;4731;49.708;10.816;2023-04-25T06:17:51;9.20;99.90
9383;DHT22;4731;49.708;10.816;2023-04-25T06:20:18;7.80;99.90
9383;DHT22;4731;49.708;10.816;2023-04-25T06:22:48;7.80;99.90
9383;DHT22;4731;49.708;10.816;2023-04-25T06:25:15;8.00;99.90
9383;DHT22;4731;49.708;10.816;2023-04-25T06:27:42;8.10;99.90
9383;DHT22;4731;49.708;10.816;2023-04-25T06:30:09;9.50;99.90
9383;DHT22;4731;49.708;10.816;2023-04-25T06:32:39;8.00;99.90
9383;DHT22;4731;49.708;10.816;2023-04-25T06:35:06;8.00;99.90
9383;DHT22;4731;49.708;10.816;2023-04-25T06:37:33;8.10;99.90
9383;DHT22;4731;49.708;10.816;2023-04-25T06:40:00;8.00;99.90
9383;DHT22;4731;49.708;10.816;2023-04-25T06:42:27;8.00;99.90
9383;DHT22;4731;49.708;10.816;2023-04-25T06:44:54;8.00;99.90
9383;DHT22;4731;49.708;10.816;2023-04-25T06:47:21;7.90;99.90
9383;DHT22;4731;49.708;10.816;2023-04-25T06:49:49;8.90;99.90
9383;DHT22;4731;49.708;10.816;2023-04-25T06:52:16;8.10;99.90
9383;DHT22;4731;49.708;10.816;2023-04-25T06:54:43;8.20;99.90
9383;DHT22;4731;49.708;10.816;2023-04-25T06:57:10;8.00;99.90
9383;DHT22;4731;49.708;10.816;2023-04-25T06:59:36;9.70;99.90
9383;DHT22;4731;49.708;10.816;2023-04-25T07:02:03;8.30;99.90
9383;DHT22;4731;49.708;10.816;2023-04-25T07:04:31;8.30;99.90
9383;DHT22;4731;49.708;10.816;2023-04-25T07:06:59;8.40;99.90
9383;DHT22;4731;49.708;10.816;2023-04-25T07:09:28;8.90;99.90
9383;DHT22;4731;49.708;10.816;2023-04-25T07:11:54;8.60;99.90
9383;DHT22;4731;49.708;10.816;2023-04-25T07:14:22;10.80;99.90
9383;DHT22;4731;49.708;10.816;2023-04-25T07:16:48;8.70;99.90
9383;DHT22;4731;49.708;10.816;2023-04-25T07:19:15;8.90;99.90
9383;DHT22;4731;49.708;10.816;2023-04-25T07:21:42;9.00;99.90
9383;DHT22;4731;49.708;10.816;2023-04-25T07:24:10;9.00;99.90
9383;DHT22;4731;49.708;10.816;2023-04-25T07:26:37;6.90;99.90
9383;DHT22;4731;49.708;10.816;2023-04-25T07:29:04;9.00;99.90
9383;DHT22;4731;49.708;10.816;2023-04-25T07:31:31;10.60;99.90
9383;DHT22;4731;49.708;10.816;2023-04-25T07:33:58;9.90;99.90
9383;DHT22;4731;49.708;10.816;2023-04-25T07:36:25;10.10;99.90
9383;DHT22;4731;49.708;10.816;2023-04-25T07:38:52;10.00;99.90
9383;DHT22;4731;49.708;10.816;2023-04-25T07:41:20;8.90;99.90
9383;DHT22;4731;49.708;10.816;2023-04-25T07:43:47;10.40;99.90
9383;DHT22;4731;49.708;10.816;2023-04-25T07:46:14;9.00;99.90
9383;DHT22;4731;49.708;10.816;2023-04-25T07:48:41;9.40;99.90
9383;DHT22;4731;49.708;10.816;2023-04-25T07:51:07;11.50;99.90
9383;DHT22;4731;49.708;10.816;2023-04-25T07:53:34;11.70;99.90
9383;DHT22;4731;49.708;10.816;2023-04-25T07:56:03;11.20;99.90
9383;DHT22;4731;49.708;10.816;2023-04-25T07:58:31;11.70;99.90
9383;DHT22;4731;49.708;10.816;2023-04-25T08:00:58;12.20;99.90
9383;DHT22;4731;49.708;10.816;2023-04-25T08:03:24;12.10;99.90
9383;DHT22;4731;49.708;10.816;2023-04-25T08:05:52;12.70;99.90
9383;DHT22;4731;49.708;10.816;2023-04-25T08:08:18;14.70;99.90
9383;DHT22;4731;49.708;10.816;2023-04-25T08:10:45;12.90;99.90
9383;DHT22;4731;49.708;10.816;2023-04-25T08:13:13;13.20;99.90
9383;DHT22;4731;49.708;10.816;2023-04-25T08:15:41;14.40;99.90
9383;DHT22;4731;49.708;10.816;2023-04-25T08:18:08;13.90;99.90
9383;DHT22;4731;49.708;10.816;2023-04-25T08:20:35;13.70;99.90
9383;DHT22;4731;49.708;10.816;2023-04-25T08:23:02;14.50;99.90
9383;DHT22;4731;49.708;10.816;2023-04-25T08:25:28;13.90;99.90
9383;DHT22;4731;49.708;10.816;2023-04-25T08:27:55;15.30;99.90
9383;DHT22;4731;49.708;10.816;2023-04-25T08:30:22;14.30;99.90
9383;DHT22;4731;49.708;10.816;2023-04-25T08:32:50;13.60;99.90
9383;DHT22;4731;49.708;10.816;2023-04-25T08:35:17;15.80;99.90
9383;DHT22;4731;49.708;10.816;2023-04-25T08:37:44;14.10;99.90
9383;DHT22;4731;49.708;10.816;2023-04-25T08:40:12;13.80;99.90
9383;DHT22;4731;49.708;10.816;2023-04-25T08:42:41;13.90;99.90
9383;DHT22;4731;49.708;10.816;2023-04-25T08:45:08;14.00;99.90
9383;DHT22;4731;49.708;10.816;2023-04-25T08:47:37;14.40;99.90
9383;DHT22;4731;49.708;10.816;2023-04-25T08:50:06;14.40;99.90
9383;DHT22;4731;49.708;10.816;2023-04-25T08:52:36;14.90;99.90
9383;DHT22;4731;49.708;10.816;2023-04-25T08:55:05;15.30;99.90
9383;DHT22;4731;49.708;10.816;2023-04-25T08:57:33;15.30;99.90
9383;DHT22;4731;49.708;10.816;2023-04-25T09:00:01;15.30;99.90
9383;DHT22;4731;49.708;10.816;2023-04-25T09:02:29;15.40;99.90
9383;DHT22;4731;49.708;10.816;2023-04-25T09:04:56;15.80;99.90
9383;DHT22;4731;49.708;10.816;2023-04-25T09:07:25;15.50;99.90
9383;DHT22;4731;49.708;10.816;2023-04-25T09:09:51;15.10;99.90
9383;DHT22;4731;49.708;10.816;2023-04-25T09:12:19;14.90;99.90
9383;DHT22;4731;49.708;10.816;2023-04-25T09:15:03;15.80;99.90
9383;DHT22;4731;49.708;10.816;2023-04-25T09:17:30;15.40;99.90
9383;DHT22;4731;49.708;10.816;2023-04-25T09:20:06;15.70;99.90
9383;DHT22;4731;49.708;10.816;2023-04-25T09:22:35;15.70;99.90
9383;DHT22;4731;49.708;10.816;2023-04-25T09:25:03;15.40;99.90
9383;DHT22;4731;49.708;10.816;2023-04-25T09:27:32;15.80;99.90
9383;DHT22;4731;49.708;10.816;2023-04-25T09:30:00;16.40;99.90
9383;DHT22;4731;49.708;10.816;2023-04-25T09:32:27;17.20;99.90
9383;DHT22;4731;49.708;10.816;2023-04-25T09:34:56;17.50;99.90
9383;DHT22;4731;49.708;10.816;2023-04-25T09:37:24;16.80;99.90
9383;DHT22;4731;49.708;10.816;2023-04-25T09:39:53;16.60;99.90
9383;DHT22;4731;49.708;10.816;2023-04-25T09:42:22;15.60;99.90
9383;DHT22;4731;49.708;10.816;2023-04-25T09:44:52;16.00;99.90
9383;DHT22;4731;49.708;10.816;2023-04-25T09:47:19;16.00;99.90
9383;DHT22;4731;49.708;10.816;2023-04-25T09:49:47;16.90;99.90
9383;DHT22;4731;49.708;10.816;2023-04-25T09:52:15;16.80;99.90
9383;DHT22;4731;49.708;10.816;2023-04-25T09:54:43;16.60;99.90
9383;DHT22;4731;49.708;10.816;2023-04-25T09:57:13;19.80;99.90
9383;DHT22;4731;49.708;10.816;2023-04-25T09:59:44;16.70;99.90
9383;DHT22;4731;49.708;10.816;2023-04-25T10:02:11;18.60;99.90
9383;DHT22;4731;49.708;10.816;2023-04-25T10:04:39;17.80;99.90
9383;DHT22;4731;49.708;10.816;2023-04-25T10:07:08;17.90;99.90
9383;DHT22;4731;49.708;10.816;2023-04-25T10:09:37;17.50;99.90
9383;DHT22;4731;49.708;10.816;2023-04-25T10:12:05;16.50;99.90
9383;DHT22;4731;49.708;10.816;2023-04-25T10:14:35;15.90;99.90
9383;DHT22;4731;49.708;10.816;2023-04-25T10:17:02;15.70;99.90
9383;DHT22;4731;49.708;10.816;2023-04-25T10:19:29;16.80;99.90
9383;DHT22;4731;49.708;10.816;2023-04-25T10:22:02;15.60;99.90
9383;DHT22;4731;49.708;10.816;2023-04-25T10:24:30;15.80;99.90
9383;DHT22;4731;49.708;10.816;2023-04-25T10:26:57;14.10;99.90
9383;DHT22;4731;49.708;10.816;2023-04-25T10:29:25;14.10;99.90
9383;DHT22;4731;49.708;10.816;2023-04-25T10:31:54;14.00;99.90
9383;DHT22;4731;49.708;10.816;2023-04-25T10:34:24;13.70;99.90
9383;DHT22;4731;49.708;10.816;2023-04-25T10:36:52;13.50;99.90
9383;DHT22;4731;49.708;10.816;2023-04-25T10:39:23;13.70;99.90
9383;DHT22;4731;49.708;10.816;2023-04-25T10:41:55;15.50;99.90
9383;DHT22;4731;49.708;10.816;2023-04-25T10:44:26;13.60;99.90
9383;DHT22;4731;49.708;10.816;2023-04-25T10:46:56;13.90;99.90
9383;DHT22;4731;49.708;10.816;2023-04-25T10:49:31;13.90;99.90
9383;DHT22;4731;49.708;10.816;2023-04-25T10:52:12;13.90;99.90
9383;DHT22;4731;49.708;10.816;2023-04-25T10:54:46;13.80;99.90
9383;DHT22;4731;49.708;10.816;2023-04-25T10:57:39;13.80;99.90
9383;DHT22;4731;49.708;10.816;2023-04-25T11:00:23;13.80;99.90
9383;DHT22;4731;49.708;10.816;2023-04-25T11:02:58;13.70;99.90
9383;DHT22;4731;49.708;10.816;2023-04-25T11:05:32;13.60;99.90
9383;DHT22;4731;49.708;10.816;2023-04-25T11:08:03;13.30;99.90
9383;DHT22;4731;49.708;10.816;2023-04-25T11:10:37;13.20;99.90
9383;DHT22;4731;49.708;10.816;2023-04-25T11:13:07;13.00;99.90
9383;DHT22;4731;49.708;10.816;2023-04-25T11:15:38;13.10;99.90
9383;DHT22;4731;49.708;10.816;2023-04-25T11:18:26;12.90;99.90
9383;DHT22;4731;49.708;10.816;2023-04-25T11:20:53;13.20;99.90
9383;DHT22;4731;49.708;10.816;2023-04-25T11:23:20;13.50;99.90
9383;DHT22;4731;49.708;10.816;2023-04-25T11:25:47;13.90;99.90
9383;DHT22;4731;49.708;10.816;2023-04-25T11:28:20;14.30;99.90
9383;DHT22;4731;49.708;10.816;2023-04-25T11:30:48;14.30;99.90
9383;DHT22;4731;49.708;10.816;2023-04-25T11:33:18;14.50;99.90
9383;DHT22;4731;49.708;10.816;2023-04-25T11:35:46;14.30;99.90
9383;DHT22;4731;49.708;10.816;2023-04-25T11:38:13;13.90;99.90
9383;DHT22;4731;49.708;10.816;2023-04-25T11:40:40;14.30;99.90
9383;DHT22;4731;49.708;10.816;2023-04-25T11:43:09;14.00;99.90
9383;DHT22;4731;49.708;10.816;2023-04-25T11:45:36;14.00;99.90
9383;DHT22;4731;49.708;10.816;2023-04-25T11:48:03;14.20;99.90
9383;DHT22;4731;49.708;10.816;2023-04-25T11:50:30;14.60;99.90
9383;DHT22;4731;49.708;10.816;2023-04-25T11:52:58;14.80;99.90
9383;DHT22;4731;49.708;10.816;2023-04-25T11:55:25;14.50;99.90
9383;DHT22;4731;49.708;10.816;2023-04-25T11:57:52;14.50;99.90
9383;DHT22;4731;49.708;10.816;2023-04-25T12:00:21;14.40;99.90
9383;DHT22;4731;49.708;10.816;2023-04-25T12:02:51;14.10;99.90
9383;DHT22;4731;49.708;10.816;2023-04-25T12:05:18;14.10;99.90
9383;DHT22;4731;49.708;10.816;2023-04-25T12:07:47;13.50;99.90
9383;DHT22;4731;49.708;10.816;2023-04-25T12:10:18;13.30;99.90
9383;DHT22;4731;49.708;10.816;2023-04-25T12:12:48;13.70;99.90
9383;DHT22;4731;49.708;10.816;2023-04-25T12:15:22;12.60;99.90
9383;DHT22;4731;49.708;10.816;2023-04-25T12:17:53;12.60;99.90
9383;DHT22;4731;49.708;10.816;2023-04-25T12:20:25;12.60;99.90
9383;DHT22;4731;49.708;10.816;2023-04-25T12:22:53;12.50;99.90
9383;DHT22;4731;49.708;10.816;2023-04-25T12:25:42;12.30;99.90
9383;DHT22;4731;49.708;10.816;2023-04-25T12:28:16;12.30;99.90
9383;DHT22;4731;49.708;10.816;2023-04-25T12:30:59;12.60;99.90
9383;DHT22;4731;49.708;10.816;2023-04-25T12:33:29;12.70;99.90
9383;DHT22;4731;49.708;10.816;2023-04-25T12:35:58;14.60;99.90
9383;DHT22;4731;49.708;10.816;2023-04-25T12:38:26;13.10;99.90
9383;DHT22;4731;49.708;10.816;2023-04-25T12:40:56;13.20;99.90
9383;DHT22;4731;49.708;10.816;2023-04-25T12:43:24;13.10;99.90
9383;DHT22;4731;49.708;10.816;2023-04-25T12:45:52;12.60;99.90
9383;DHT22;4731;49.708;10.816;2023-04-25T12:48:19;12.50;99.90
9383;DHT22;4731;49.708;10.816;2023-04-25T12:50:48;12.60;99.90
9383;DHT22;4731;49.708;10.816;2023-04-25T12:53:15;12.10;99.90
9383;DHT22;4731;49.708;10.816;2023-04-25T12:55:44;14.10;99.90
9383;DHT22;4731;49.708;10.816;2023-04-25T12:58:19;11.90;99.90
9383;DHT22;4731;49.708;10.816;2023-04-25T13:00:48;11.80;99.90
9383;DHT22;4731;49.708;10.816;2023-04-25T13:03:16;11.80;99.90
9383;DHT22;4731;49.708;10.816;2023-04-25T13:05:43;10.20;99.90
9383;DHT22;4731;49.708;10.816;2023-04-25T13:08:10;14.00;99.90
9383;DHT22;4731;49.708;10.816;2023-04-25T13:10:37;12.00;99.90
9383;DHT22;4731;49.708;10.816;2023-04-25T13:13:04;12.30;99.90
9383;DHT22;4731;49.708;10.816;2023-04-25T13:15:33;12.60;99.90
9383;DHT22;4731;49.708;10.816;2023-04-25T13:18:00;12.60;99.90
9383;DHT22;4731;49.708;10.816;2023-04-25T13:20:27;12.50;99.90
9383;DHT22;4731;49.708;10.816;2023-04-25T13:22:54;12.90;99.90
9383;DHT22;4731;49.708;10.816;2023-04-25T13:25:21;12.80;99.90
9383;DHT22;4731;49.708;10.816;2023-04-25T13:27:48;13.10;99.90
9383;DHT22;4731;49.708;10.816;2023-04-25T13:30:15;12.90;99.90
9383;DHT22;4731;49.708;10.816;2023-04-25T13:32:44;12.50;99.90
9383;DHT22;4731;49.708;10.816;2023-04-25T13:35:13;12.10;99.90
9383;DHT22;4731;49.708;10.816;2023-04-25T13:37:40;11.70;99.90
9383;DHT22;4731;49.708;10.816;2023-04-25T13:40:10;11.50;99.90
9383;DHT22;4731;49.708;10.816;2023-04-25T13:42:37;11.30;99.90
9383;DHT22;4731;49.708;10.816;2023-04-25T13:45:06;13.60;99.90
9383;DHT22;4731;49.708;10.816;2023-04-25T13:47:33;11.30;99.90
9383;DHT22;4731;49.708;10.816;2023-04-25T13:50:02;12.70;99.90
9383;DHT22;4731;49.708;10.816;2023-04-25T13:52:29;11.50;99.90
9383;DHT22;4731;49.708;10.816;2023-04-25T13:54:56;11.60;99.90
9383;DHT22;4731;49.708;10.816;2023-04-25T13:57:24;13.50;99.90
9383;DHT22;4731;49.708;10.816;2023-04-25T13:59:52;11.80;99.90
9383;DHT22;4731;49.708;10.816;2023-04-25T14:02:19;11.90;99.90
9383;DHT22;4731;49.708;10.816;2023-04-25T14:04:46;12.00;99.90
9383;DHT22;4731;49.708;10.816;2023-04-25T14:07:14;12.10;99.90
9383;DHT22;4731;49.708;10.816;2023-04-25T14:09:42;12.10;99.90
9383;DHT22;4731;49.708;10.816;2023-04-25T14:12:09;12.20;99.90
9383;DHT22;4731;49.708;10.816;2023-04-25T14:14:36;12.10;99.90
9383;DHT22;4731;49.708;10.816;2023-04-25T14:17:03;11.90;99.90
9383;DHT22;4731;49.708;10.816;2023-04-25T14:19:32;11.70;99.90
9383;DHT22;4731;49.708;10.816;2023-04-25T14:21:59;11.60;99.90
9383;DHT22;4731;49.708;10.816;2023-04-25T14:24:27;11.60;99.90
9383;DHT22;4731;49.708;10.816;2023-04-25T14:26:54;11.80;99.90
9383;DHT22;4731;49.708;10.816;2023-04-25T14:29:21;11.60;99.90
9383;DHT22;4731;49.708;10.816;2023-04-25T14:31:47;11.60;99.90
9383;DHT22;4731;49.708;10.816;2023-04-25T14:34:14;13.40;99.90
9383;DHT22;4731;49.708;10.816;2023-04-25T14:36:41;11.60;99.90
9383;DHT22;4731;49.708;10.816;2023-04-25T14:39:08;12.20;99.90
9383;DHT22;4731;49.708;10.816;2023-04-25T14:41:36;11.60;99.90
9383;DHT22;4731;49.708;10.816;2023-04-25T14:44:04;12.80;99.90
9383;DHT22;4731;49.708;10.816;2023-04-25T14:46:31;11.70;99.90
9383;DHT22;4731;49.708;10.816;2023-04-25T14:48:58;14.90;99.90
9383;DHT22;4731;49.708;10.816;2023-04-25T14:51:25;11.80;99.90
9383;DHT22;4731;49.708;10.816;2023-04-25T14:53:52;11.90;99.90
9383;DHT22;4731;49.708;10.816;2023-04-25T14:56:19;11.80;99.90
9383;DHT22;4731;49.708;10.816;2023-04-25T14:58:47;11.70;99.90
9383;DHT22;4731;49.708;10.816;2023-04-25T15:01:14;11.50;99.90
9383;DHT22;4731;49.708;10.816;2023-04-25T15:03:41;11.40;99.90
9383;DHT22;4731;49.708;10.816;2023-04-25T15:06:08;11.10;99.90
9383;DHT22;4731;49.708;10.816;2023-04-25T15:08:35;11.00;99.90
9383;DHT22;4731;49.708;10.816;2023-04-25T15:11:02;10.90;99.90
9383;DHT22;4731;49.708;10.816;2023-04-25T15:13:29;11.00;99.90
9383;DHT22;4731;49.708;10.816;2023-04-25T15:15:58;11.00;99.90
9383;DHT22;4731;49.708;10.816;2023-04-25T15:18:25;11.00;99.90
9383;DHT22;4731;49.708;10.816;2023-04-25T15:20:52;11.00;99.90
9383;DHT22;4731;49.708;10.816;2023-04-25T15:23:20;14.30;99.90
9383;DHT22;4731;49.708;10.816;2023-04-25T15:25:49;11.30;99.90
9383;DHT22;4731;49.708;10.816;2023-04-25T15:28:16;11.50;99.90
9383;DHT22;4731;49.708;10.816;2023-04-25T15:30:44;11.60;99.90
9383;DHT22;4731;49.708;10.816;2023-04-25T15:33:12;13.50;99.90
9383;DHT22;4731;49.708;10.816;2023-04-25T15:35:40;12.00;99.90
9383;DHT22;4731;49.708;10.816;2023-04-25T15:38:08;11.80;99.90
9383;DHT22;4731;49.708;10.816;2023-04-25T15:40:35;13.10;99.90
9383;DHT22;4731;49.708;10.816;2023-04-25T15:43:02;11.60;99.90
9383;DHT22;4731;49.708;10.816;2023-04-25T15:45:29;13.50;99.90
9383;DHT22;4731;49.708;10.816;2023-04-25T15:47:57;11.80;99.90
9383;DHT22;4731;49.708;10.816;2023-04-25T15:50:25;12.20;99.90
9383;DHT22;4731;49.708;10.816;2023-04-25T15:52:52;12.00;99.90
9383;DHT22;4731;49.708;10.816;2023-04-25T15:55:19;13.40;99.90
9383;DHT22;4731;49.708;10.816;2023-04-25T15:57:48;12.10;99.90